地図

経路データ

SID SEASON NUMBER BASIN SUBBASIN NAME ISO_TIME NATURE LAT LON WMO_WIND WMO_PRES WMO_AGENCY TRACK_TYPE DIST2LAND LANDFALL IFLAG USA_AGENCY USA_ATCF_ID USA_LAT USA_LON USA_RECORD USA_STATUS USA_WIND USA_PRES USA_SSHS USA_R34_NE USA_R34_SE USA_R34_SW USA_R34_NW USA_R50_NE USA_R50_SE USA_R50_SW USA_R50_NW USA_R64_NE USA_R64_SE USA_R64_SW USA_R64_NW USA_POCI USA_ROCI USA_RMW USA_EYE TOKYO_LAT TOKYO_LON TOKYO_GRADE TOKYO_WIND TOKYO_PRES TOKYO_R50_DIR TOKYO_R50_LONG TOKYO_R50_SHORT TOKYO_R30_DIR TOKYO_R30_LONG TOKYO_R30_SHORT TOKYO_LAND CMA_LAT CMA_LON CMA_CAT CMA_WIND CMA_PRES HKO_LAT HKO_LON HKO_CAT HKO_WIND HKO_PRES NEWDELHI_LAT NEWDELHI_LON NEWDELHI_GRADE NEWDELHI_WIND NEWDELHI_PRES NEWDELHI_CI NEWDELHI_DP NEWDELHI_POCI REUNION_LAT REUNION_LON REUNION_TYPE REUNION_WIND REUNION_PRES REUNION_TNUM REUNION_CI REUNION_RMW REUNION_R34_NE REUNION_R34_SE REUNION_R34_SW REUNION_R34_NW REUNION_R50_NE REUNION_R50_SE REUNION_R50_SW REUNION_R50_NW REUNION_R64_NE REUNION_R64_SE REUNION_R64_SW REUNION_R64_NW BOM_LAT BOM_LON BOM_TYPE BOM_WIND BOM_PRES BOM_TNUM BOM_CI BOM_RMW BOM_R34_NE BOM_R34_SE BOM_R34_SW BOM_R34_NW BOM_R50_NE BOM_R50_SE BOM_R50_SW BOM_R50_NW BOM_R64_NE BOM_R64_SE BOM_R64_SW BOM_R64_NW BOM_ROCI BOM_POCI BOM_EYE BOM_POS_METHOD BOM_PRES_METHOD NADI_LAT NADI_LON NADI_CAT NADI_WIND NADI_PRES WELLINGTON_LAT WELLINGTON_LON WELLINGTON_WIND WELLINGTON_PRES DS824_LAT DS824_LON DS824_STAGE DS824_WIND DS824_PRES TD9636_LAT TD9636_LON TD9636_STAGE TD9636_WIND TD9636_PRES TD9635_LAT TD9635_LON TD9635_WIND TD9635_PRES TD9635_ROCI NEUMANN_LAT NEUMANN_LON NEUMANN_CLASS NEUMANN_WIND NEUMANN_PRES MLC_LAT MLC_LON MLC_CLASS MLC_WIND MLC_PRES USA_GUST BOM_GUST BOM_GUST_PER REUNION_GUST REUNION_GUST_PER USA_SEAHGT USA_SEARAD_NE USA_SEARAD_SE USA_SEARAD_SW USA_SEARAD_NW STORM_SPEED STORM_DIR
1933346N07086 1933 80 NI BB NOT_NAMED 1933-12-12 00:00:00 TS 7.30000 85.5000 main 398 389 _________O____ -1 7.30000 85.5000 TC 30 4 323
1933346N07086 1933 80 NI BB NOT_NAMED 1933-12-12 03:00:00 TS 7.46667 85.3734 main 390 370 _________PO___ -1 7.55001 85.3100 TC 31 7.30000 85.5000 1 5 321
1933346N07086 1933 80 NI BB NOT_NAMED 1933-12-12 06:00:00 TS 7.69628 85.1738 main 372 353 _________OP___ -1 7.80000 85.1000 TC 32 7.54069 85.2844 1 6 318
1933346N07086 1933 80 NI BB NOT_NAMED 1933-12-12 09:00:00 TS 7.93645 84.9464 main 343 324 _________PP___ -1 8.05000 84.8575 TC 33 7.78506 85.0650 1 7 316
1933346N07086 1933 80 NI BB NOT_NAMED 1933-12-12 12:00:00 TS 8.16845 84.7191 main 326 310 _________OP___ -1 8.30000 84.6000 TC 34 8.03690 84.8381 1 7 316
1933346N07086 1933 80 NI BB NOT_NAMED 1933-12-12 15:00:00 TS 8.42499 84.4750 main 310 291 _________PO___ -1 8.54998 84.3500 TC 36 8.30000 84.6000 2 7 317
1933346N07086 1933 80 NI BB NOT_NAMED 1933-12-12 18:00:00 TS 8.68719 84.2246 main 291 282 _________OP___ -1 8.80000 84.1000 TC 39 8.57438 84.3491 2 7 317
1933346N07086 1933 80 NI BB NOT_NAMED 1933-12-12 21:00:00 TS 8.95875 83.9676 main 286 267 _________PP___ -1 9.07250 83.8425 TC 42 8.84501 84.0926 2 7 316
1933346N07086 1933 80 NI BB NOT_NAMED 1933-12-13 00:00:00 TS 9.19657 83.7199 main 267 251 _________OP___ -1 9.30000 83.6000 TC 45 9.09313 83.8398 2 6 311
1933346N07086 1933 80 NI BB NOT_NAMED 1933-12-13 03:00:00 TS 9.36124 83.4962 main 256 237 _________PO___ -1 9.42247 83.3924 TC 45 9.30000 83.6000 3 5 302
1933346N07086 1933 80 NI BB NOT_NAMED 1933-12-13 06:00:00 TS 9.46543 83.2907 main 242 223 _________OP___ -1 9.50000 83.2000 TC 45 9.43087 83.3813 3 5 295
1933346N07086 1933 80 NI BB NOT_NAMED 1933-12-13 09:00:00 TS 9.55371 83.0848 main 230 212 _________PP___ -1 9.58500 82.9925 TC 45 9.52242 83.1772 3 4 295
1933346N07086 1933 80 NI BB NOT_NAMED 1933-12-13 12:00:00 TS 9.65138 82.8922 main 217 205 _________OP___ -1 9.70000 82.8000 TC 45 9.60276 82.9845 3 4 304
1933346N07086 1933 80 NI BB NOT_NAMED 1933-12-13 15:00:00 TS 9.79624 82.7250 main 205 204 _________PO___ -1 9.89247 82.6500 TC 49 9.70000 82.8000 3 5 315
1933346N07086 1933 80 NI BB NOT_NAMED 1933-12-13 18:00:00 TS 9.98278 82.5610 main 211 197 _________OP___ -1 10.1000 82.5000 TC 54 9.86556 82.6219 3 5 317
1933346N07086 1933 80 NI BB NOT_NAMED 1933-12-13 21:00:00 TS 10.1575 82.3788 main 202 190 _________PP___ -1 10.2650 82.3075 TC 59 10.0499 82.4500 3 5 312
1933346N07086 1933 80 NI BB NOT_NAMED 1933-12-14 00:00:00 TS 10.3172 82.1891 main 190 180 _________OP___ -1 10.4000 82.1000 TC 64 10.2343 82.2781 3 5 308
1933346N07086 1933 80 NI BB NOT_NAMED 1933-12-14 03:00:00 TS 10.4537 82.0000 main 188 173 _________PO___ -1 10.5075 81.9000 TC 64 10.4000 82.1000 4 5 302
1933346N07086 1933 80 NI BB NOT_NAMED 1933-12-14 06:00:00 TS 10.5588 81.8015 main 182 169 _________OP___ -1 10.6000 81.7000 TC 64 10.5175 81.9030 4 4 297
1933346N07086 1933 80 NI BB NOT_NAMED 1933-12-14 09:00:00 TS 10.6575 81.5999 main 179 164 _________PP___ -1 10.7000 81.5000 TC 64 10.6150 81.6999 4 4 296
1933346N07086 1933 80 NI BB NOT_NAMED 1933-12-14 12:00:00 TS 10.7525 81.3984 main 163 142 _________OP___ -1 10.8000 81.3000 TC 64 10.7050 81.4968 4 4 295
1933346N07086 1933 80 NI BB NOT_NAMED 1933-12-14 15:00:00 TS 10.8463 81.1962 main 142 120 _________PO___ -1 10.8925 81.0925 TC 64 10.8000 81.3000 4 4 298
1933346N07086 1933 80 NI BB NOT_NAMED 1933-12-14 18:00:00 TS 10.9484 81.0224 main 120 109 _________OP___ -1 11.0000 80.9000 TC 64 10.9097 81.1142 4 4 305
1933346N07086 1933 80 NI BB NOT_NAMED 1933-12-14 21:00:00 TS 11.0755 80.8586 main 109 87 _________PP___ -1 11.1400 80.7400 TC 64 11.0325 80.9377 4 4 311
1933346N07086 1933 80 NI BB NOT_NAMED 1933-12-15 00:00:00 TS 11.2094 80.7116 main 87 77 _________OP___ -1 11.3000 80.6000 TC 64 11.1641 80.7673 4 3 312
1933346N07086 1933 80 NI BB NOT_NAMED 1933-12-15 03:00:00 NR 11.3000 80.6000 main 77 __________O___ -1 TC 11.3000 80.6000 4 3 309

IBTrACS Databaseについて

本データベースは、米国NOAAが公開する1842年以降の世界の熱帯低気圧のベストトラックデータアーカイブInternational Best Track Archive for Climate Stewardship (IBTrACS)を、ウェブで閲覧しやすい形式に変換したものです。

最終更新日:2021-11-26